sensor_id;sensor_type;location;lat;lon;timestamp;pressure;altitude;pressure_sealevel;temperature;humidity
51261;BME280;61705;46.228;24.812;2023-01-28T00:00:52;97083.38;;;-0.55;100.00
51261;BME280;61705;46.228;24.812;2023-01-28T00:03:19;97088.50;;;-0.52;100.00
51261;BME280;61705;46.228;24.812;2023-01-28T00:05:46;97090.28;;;-0.54;100.00
51261;BME280;61705;46.228;24.812;2023-01-28T00:08:13;97089.47;;;-0.59;100.00
51261;BME280;61705;46.228;24.812;2023-01-28T00:10:41;97088.56;;;-0.56;100.00
51261;BME280;61705;46.228;24.812;2023-01-28T00:13:11;97097.25;;;-0.57;100.00
51261;BME280;61705;46.228;24.812;2023-01-28T00:15:40;97093.78;;;-0.58;100.00
51261;BME280;61705;46.228;24.812;2023-01-28T00:18:07;97090.31;;;-0.57;100.00
51261;BME280;61705;46.228;24.812;2023-01-28T00:20:33;97092.06;;;-0.59;100.00
51261;BME280;61705;46.228;24.812;2023-01-28T00:23:01;97093.78;;;-0.58;100.00
51261;BME280;61705;46.228;24.812;2023-01-28T00:25:29;97092.03;;;-0.56;100.00
51261;BME280;61705;46.228;24.812;2023-01-28T00:27:56;97093.75;;;-0.56;100.00
51261;BME280;61705;46.228;24.812;2023-01-28T00:30:23;97089.44;;;-0.56;100.00
51261;BME280;61705;46.228;24.812;2023-01-28T00:32:49;97095.47;;;-0.55;100.00
51261;BME280;61705;46.228;24.812;2023-01-28T00:35:16;97098.94;;;-0.55;100.00
51261;BME280;61705;46.228;24.812;2023-01-28T00:37:45;97094.63;;;-0.56;100.00
51261;BME280;61705;46.228;24.812;2023-01-28T00:40:12;97088.56;;;-0.56;100.00
51261;BME280;61705;46.228;24.812;2023-01-28T00:42:39;97090.28;;;-0.55;100.00
51261;BME280;61705;46.228;24.812;2023-01-28T00:45:06;97089.44;;;-0.54;100.00
51261;BME280;61705;46.228;24.812;2023-01-28T00:47:33;97088.47;;;-0.47;100.00
51261;BME280;61705;46.228;24.812;2023-01-28T00:49:59;97092.81;;;-0.49;100.00
51261;BME280;61705;46.228;24.812;2023-01-28T00:52:26;97091.16;;;-0.56;100.00
51261;BME280;61705;46.228;24.812;2023-01-28T00:54:53;97095.47;;;-0.55;100.00
51261;BME280;61705;46.228;24.812;2023-01-28T00:57:20;97096.34;;;-0.55;100.00
51261;BME280;61705;46.228;24.812;2023-01-28T00:59:48;97098.06;;;-0.54;100.00
51261;BME280;61705;46.228;24.812;2023-01-28T01:02:18;97098.81;;;-0.45;100.00
51261;BME280;61705;46.228;24.812;2023-01-28T01:04:44;97096.22;;;-0.45;100.00
51261;BME280;61705;46.228;24.812;2023-01-28T01:07:25;97098.81;;;-0.45;100.00
51261;BME280;61705;46.228;24.812;2023-01-28T01:10:00;97096.19;;;-0.41;100.00
51261;BME280;61705;46.228;24.812;2023-01-28T01:12:28;97091.00;;;-0.42;100.00
51261;BME280;61705;46.228;24.812;2023-01-28T01:14:56;97097.13;;;-0.48;100.00
51261;BME280;61705;46.228;24.812;2023-01-28T01:17:23;97093.69;;;-0.52;100.00
51261;BME280;61705;46.228;24.812;2023-01-28T01:19:50;97094.59;;;-0.51;100.00
51261;BME280;61705;46.228;24.812;2023-01-28T01:22:16;97100.63;;;-0.51;100.00
51261;BME280;61705;46.228;24.812;2023-01-28T01:24:43;97097.16;;;-0.50;100.00
51261;BME280;61705;46.228;24.812;2023-01-28T01:27:09;97104.94;;;-0.50;100.00
51261;BME280;61705;46.228;24.812;2023-01-28T01:29:36;97097.19;;;-0.51;100.00
51261;BME280;61705;46.228;24.812;2023-01-28T01:32:03;97093.72;;;-0.53;100.00
51261;BME280;61705;46.228;24.812;2023-01-28T01:34:30;97100.69;;;-0.57;100.00
51261;BME280;61705;46.228;24.812;2023-01-28T01:36:56;97099.81;;;-0.56;99.88
51261;BME280;61705;46.228;24.812;2023-01-28T01:39:23;97097.22;;;-0.54;99.90
51261;BME280;61705;46.228;24.812;2023-01-28T01:41:50;97104.16;;;-0.55;99.73
51261;BME280;61705;46.228;24.812;2023-01-28T01:44:47;97101.50;;;-0.53;99.72
51261;BME280;61705;46.228;24.812;2023-01-28T01:47:18;97102.38;;;-0.53;99.68
51261;BME280;61705;46.228;24.812;2023-01-28T01:49:46;97105.81;;;-0.52;99.51
51261;BME280;61705;46.228;24.812;2023-01-28T01:52:17;97103.22;;;-0.51;99.51
51261;BME280;61705;46.228;24.812;2023-01-28T01:54:47;97107.50;;;-0.46;99.46
51261;BME280;61705;46.228;24.812;2023-01-28T01:57:23;97104.97;;;-0.53;99.29
51261;BME280;61705;46.228;24.812;2023-01-28T01:59:53;97109.28;;;-0.52;99.50
51261;BME280;61705;46.228;24.812;2023-01-28T02:02:20;97108.41;;;-0.51;99.65
51261;BME280;61705;46.228;24.812;2023-01-28T02:04:47;97107.53;;;-0.50;99.69
51261;BME280;61705;46.228;24.812;2023-01-28T02:07:15;97107.50;;;-0.46;99.65
51261;BME280;61705;46.228;24.812;2023-01-28T02:09:44;97110.09;;;-0.46;99.59
51261;BME280;61705;46.228;24.812;2023-01-28T02:12:34;97115.28;;;-0.46;99.66
51261;BME280;61705;46.228;24.812;2023-01-28T02:15:05;97110.03;;;-0.40;99.78
51261;BME280;61705;46.228;24.812;2023-01-28T02:17:33;97117.84;;;-0.45;99.43
51261;BME280;61705;46.228;24.812;2023-01-28T02:20:04;97118.75;;;-0.44;99.56
51261;BME280;61705;46.228;24.812;2023-01-28T02:23:06;97117.81;;;-0.42;99.62
51261;BME280;61705;46.228;24.812;2023-01-28T02:26:33;97107.44;;;-0.40;99.64
51261;BME280;61705;46.228;24.812;2023-01-28T02:31:51;97117.88;;;-0.46;99.40
51261;BME280;61705;46.228;24.812;2023-01-28T02:34:30;97116.16;;;-0.49;99.35
51261;BME280;61705;46.228;24.812;2023-01-28T02:37:20;97114.44;;;-0.49;99.10
51261;BME280;61705;46.228;24.812;2023-01-28T02:39:51;97119.63;;;-0.49;98.98
51261;BME280;61705;46.228;24.812;2023-01-28T02:42:24;97119.66;;;-0.52;98.91
51261;BME280;61705;46.228;24.812;2023-01-28T02:44:52;97117.06;;;-0.52;98.62
51261;BME280;61705;46.228;24.812;2023-01-28T02:47:19;97123.97;;;-0.52;98.65
51261;BME280;61705;46.228;24.812;2023-01-28T02:50:16;97117.94;;;-0.53;98.53
51261;BME280;61705;46.228;24.812;2023-01-28T02:59:22;97122.25;;;-0.50;98.53
51261;BME280;61705;46.228;24.812;2023-01-28T03:02:21;97121.41;;;-0.54;98.31
51261;BME280;61705;46.228;24.812;2023-01-28T03:04:59;97124.00;;;-0.55;98.22
51261;BME280;61705;46.228;24.812;2023-01-28T03:07:30;97124.94;;;-0.58;98.26
51261;BME280;61705;46.228;24.812;2023-01-28T03:10:01;97128.34;;;-0.56;98.16
51261;BME280;61705;46.228;24.812;2023-01-28T03:12:33;97128.34;;;-0.56;98.23
51261;BME280;61705;46.228;24.812;2023-01-28T03:15:22;97127.53;;;-0.58;98.33
51261;BME280;61705;46.228;24.812;2023-01-28T03:18:12;97137.91;;;-0.59;98.42
51261;BME280;61705;46.228;24.812;2023-01-28T03:21:43;97130.13;;;-0.59;98.27
51261;BME280;61705;46.228;24.812;2023-01-28T03:24:13;97122.34;;;-0.58;98.52
51261;BME280;61705;46.228;24.812;2023-01-28T03:27:18;97130.97;;;-0.57;98.31
51261;BME280;61705;46.228;24.812;2023-01-28T03:30:08;97126.63;;;-0.58;98.44
51261;BME280;61705;46.228;24.812;2023-01-28T03:32:57;97130.13;;;-0.58;98.49
51261;BME280;61705;46.228;24.812;2023-01-28T03:35:45;97121.44;;;-0.57;98.32
51261;BME280;61705;46.228;24.812;2023-01-28T03:38:30;97125.75;;;-0.56;98.20
51261;BME280;61705;46.228;24.812;2023-01-28T03:41:01;97134.41;;;-0.58;98.26
51261;BME280;61705;46.228;24.812;2023-01-28T03:43:29;97132.72;;;-0.58;98.27
51261;BME280;61705;46.228;24.812;2023-01-28T03:45:56;97135.31;;;-0.59;98.30
51261;BME280;61705;46.228;24.812;2023-01-28T03:48:25;97130.97;;;-0.59;98.22
51261;BME280;61705;46.228;24.812;2023-01-28T03:50:55;97137.03;;;-0.60;98.29
51261;BME280;61705;46.228;24.812;2023-01-28T03:53:22;97133.59;;;-0.60;98.46
51261;BME280;61705;46.228;24.812;2023-01-28T03:55:50;97137.03;;;-0.58;98.47
51261;BME280;61705;46.228;24.812;2023-01-28T03:58:18;97141.38;;;-0.60;98.59
51261;BME280;61705;46.228;24.812;2023-01-28T04:00:45;97143.09;;;-0.59;98.61
51261;BME280;61705;46.228;24.812;2023-01-28T04:03:17;97150.03;;;-0.60;98.60
51261;BME280;61705;46.228;24.812;2023-01-28T04:05:46;97147.41;;;-0.57;98.70
51261;BME280;61705;46.228;24.812;2023-01-28T04:08:22;97147.38;;;-0.55;98.80
51261;BME280;61705;46.228;24.812;2023-01-28T04:10:49;97150.84;;;-0.56;98.76
51261;BME280;61705;46.228;24.812;2023-01-28T04:13:16;97154.31;;;-0.59;98.81
51261;BME280;61705;46.228;24.812;2023-01-28T04:15:43;97154.31;;;-0.59;98.75
51261;BME280;61705;46.228;24.812;2023-01-28T04:18:10;97154.31;;;-0.59;98.91
51261;BME280;61705;46.228;24.812;2023-01-28T04:20:38;97156.91;;;-0.59;98.70
51261;BME280;61705;46.228;24.812;2023-01-28T04:23:05;97160.34;;;-0.55;98.78
51261;BME280;61705;46.228;24.812;2023-01-28T04:25:33;97160.38;;;-0.57;98.82
51261;BME280;61705;46.228;24.812;2023-01-28T04:28:00;97161.25;;;-0.59;98.81
51261;BME280;61705;46.228;24.812;2023-01-28T04:30:26;97172.53;;;-0.60;98.88
51261;BME280;61705;46.228;24.812;2023-01-28T04:32:53;97165.56;;;-0.58;98.80
51261;BME280;61705;46.228;24.812;2023-01-28T04:35:21;97163.91;;;-0.64;98.79
51261;BME280;61705;46.228;24.812;2023-01-28T04:37:47;97166.47;;;-0.61;98.81
51261;BME280;61705;46.228;24.812;2023-01-28T04:40:14;97178.59;;;-0.61;98.83
51261;BME280;61705;46.228;24.812;2023-01-28T04:42:40;97175.16;;;-0.65;98.79
51261;BME280;61705;46.228;24.812;2023-01-28T04:45:07;97180.31;;;-0.63;98.80
51261;BME280;61705;46.228;24.812;2023-01-28T04:47:34;97178.63;;;-0.64;98.73
51261;BME280;61705;46.228;24.812;2023-01-28T04:50:01;97182.06;;;-0.64;98.87
51261;BME280;61705;46.228;24.812;2023-01-28T04:52:27;97187.25;;;-0.64;98.60
51261;BME280;61705;46.228;24.812;2023-01-28T04:54:54;97194.19;;;-0.66;98.74
51261;BME280;61705;46.228;24.812;2023-01-28T04:57:21;97189.81;;;-0.62;98.61
51261;BME280;61705;46.228;24.812;2023-01-28T04:59:47;97191.59;;;-0.66;98.61
51261;BME280;61705;46.228;24.812;2023-01-28T05:02:14;97196.78;;;-0.66;98.59
51261;BME280;61705;46.228;24.812;2023-01-28T05:04:41;97198.50;;;-0.66;98.69
51261;BME280;61705;46.228;24.812;2023-01-28T05:07:07;97201.09;;;-0.63;98.61
51261;BME280;61705;46.228;24.812;2023-01-28T05:09:34;97208.00;;;-0.64;98.56
51261;BME280;61705;46.228;24.812;2023-01-28T05:12:02;97205.41;;;-0.65;98.59
51261;BME280;61705;46.228;24.812;2023-01-28T05:14:28;97205.44;;;-0.67;98.62
51261;BME280;61705;46.228;24.812;2023-01-28T05:16:55;97214.97;;;-0.67;98.58
51261;BME280;61705;46.228;24.812;2023-01-28T05:19:22;97206.31;;;-0.68;98.69
51261;BME280;61705;46.228;24.812;2023-01-28T05:21:48;97213.22;;;-0.67;98.56
51261;BME280;61705;46.228;24.812;2023-01-28T05:24:15;97214.97;;;-0.69;98.77
51261;BME280;61705;46.228;24.812;2023-01-28T05:26:42;97216.69;;;-0.69;98.76
51261;BME280;61705;46.228;24.812;2023-01-28T05:29:09;97211.50;;;-0.68;98.71
51261;BME280;61705;46.228;24.812;2023-01-28T05:31:35;97213.28;;;-0.73;98.76
51261;BME280;61705;46.228;24.812;2023-01-28T05:34:02;97214.09;;;-0.68;98.83
51261;BME280;61705;46.228;24.812;2023-01-28T05:36:29;97220.09;;;-0.63;98.66
51261;BME280;61705;46.228;24.812;2023-01-28T05:38:55;97221.88;;;-0.68;98.75
51261;BME280;61705;46.228;24.812;2023-01-28T05:41:22;97229.66;;;-0.65;99.02
51261;BME280;61705;46.228;24.812;2023-01-28T05:43:49;97227.84;;;-0.60;98.92
51261;BME280;61705;46.228;24.812;2023-01-28T05:46:15;97235.66;;;-0.60;98.82
51261;BME280;61705;46.228;24.812;2023-01-28T05:48:42;97237.38;;;-0.62;98.77
51261;BME280;61705;46.228;24.812;2023-01-28T05:51:09;97245.16;;;-0.60;98.92
51261;BME280;61705;46.228;24.812;2023-01-28T05:53:35;97245.16;;;-0.60;98.96
51261;BME280;61705;46.228;24.812;2023-01-28T05:56:02;97240.84;;;-0.63;98.72
51261;BME280;61705;46.228;24.812;2023-01-28T05:58:29;97248.66;;;-0.63;98.72
51261;BME280;61705;46.228;24.812;2023-01-28T06:00:57;97249.44;;;-0.53;98.85
51261;BME280;61705;46.228;24.812;2023-01-28T06:03:24;97254.56;;;-0.47;98.66
51261;BME280;61705;46.228;24.812;2023-01-28T06:05:51;97250.25;;;-0.46;98.68
51261;BME280;61705;46.228;24.812;2023-01-28T06:08:17;97255.50;;;-0.54;98.52
51261;BME280;61705;46.228;24.812;2023-01-28T06:10:45;97260.66;;;-0.53;98.62
51261;BME280;61705;46.228;24.812;2023-01-28T06:13:12;97256.31;;;-0.49;98.48
51261;BME280;61705;46.228;24.812;2023-01-28T06:15:38;97262.38;;;-0.50;98.31
51261;BME280;61705;46.228;24.812;2023-01-28T06:18:05;97272.78;;;-0.53;98.29
51261;BME280;61705;46.228;24.812;2023-01-28T06:20:32;97272.75;;;-0.52;98.30
51261;BME280;61705;46.228;24.812;2023-01-28T06:22:59;97277.94;;;-0.52;97.97
51261;BME280;61705;46.228;24.812;2023-01-28T06:25:25;97277.06;;;-0.49;97.73
51261;BME280;61705;46.228;24.812;2023-01-28T06:27:52;97284.03;;;-0.51;97.67
51261;BME280;61705;46.228;24.812;2023-01-28T06:30:19;97283.97;;;-0.48;97.55
51261;BME280;61705;46.228;24.812;2023-01-28T06:32:52;97289.19;;;-0.50;97.13
51261;BME280;61705;46.228;24.812;2023-01-28T06:35:18;97292.63;;;-0.49;97.24
51261;BME280;61705;46.228;24.812;2023-01-28T06:37:45;97285.72;;;-0.49;97.05
51261;BME280;61705;46.228;24.812;2023-01-28T06:40:12;97291.75;;;-0.48;96.56
51261;BME280;61705;46.228;24.812;2023-01-28T06:42:39;97290.88;;;-0.41;96.48
51261;BME280;61705;46.228;24.812;2023-01-28T06:45:06;97293.38;;;-0.33;96.29
51261;BME280;61705;46.228;24.812;2023-01-28T06:47:33;97294.25;;;-0.34;95.96
51261;BME280;61705;46.228;24.812;2023-01-28T06:50:00;97294.22;;;-0.30;95.68
51261;BME280;61705;46.228;24.812;2023-01-28T06:52:26;97303.66;;;-0.24;95.48
51261;BME280;61705;46.228;24.812;2023-01-28T06:54:53;97304.53;;;-0.20;95.14
51261;BME280;61705;46.228;24.812;2023-01-28T06:57:20;97295.84;;;-0.19;94.71
51261;BME280;61705;46.228;24.812;2023-01-28T06:59:46;97302.72;;;-0.12;94.44
51261;BME280;61705;46.228;24.812;2023-01-28T07:02:13;97314.81;;;-0.11;94.10
51261;BME280;61705;46.228;24.812;2023-01-28T07:04:40;97313.97;;;-0.12;93.96
51261;BME280;61705;46.228;24.812;2023-01-28T07:07:07;97321.69;;;-0.07;93.83
51261;BME280;61705;46.228;24.812;2023-01-28T07:09:33;97319.00;;;0.05;93.82
51261;BME280;61705;46.228;24.812;2023-01-28T07:12:02;97317.25;;;0.07;93.56
51261;BME280;61705;46.228;24.812;2023-01-28T07:14:32;97319.84;;;0.06;93.06
51261;BME280;61705;46.228;24.812;2023-01-28T07:16:59;97319.84;;;0.06;92.74
51261;BME280;61705;46.228;24.812;2023-01-28T07:19:25;97317.16;;;0.13;92.48
51261;BME280;61705;46.228;24.812;2023-01-28T07:21:52;97320.69;;;0.11;92.31
51261;BME280;61705;46.228;24.812;2023-01-28T07:24:23;97317.16;;;0.15;92.02
51261;BME280;61705;46.228;24.812;2023-01-28T07:26:49;97318.78;;;0.23;92.03
51261;BME280;61705;46.228;24.812;2023-01-28T07:29:16;97321.44;;;0.19;91.65
51261;BME280;61705;46.228;24.812;2023-01-28T07:31:43;97329.22;;;0.20;91.76
51261;BME280;61705;46.228;24.812;2023-01-28T07:34:10;97323.13;;;0.23;91.65
51261;BME280;61705;46.228;24.812;2023-01-28T07:36:36;97335.31;;;0.21;91.72
51261;BME280;61705;46.228;24.812;2023-01-28T07:39:03;97339.56;;;0.27;91.45
51261;BME280;61705;46.228;24.812;2023-01-28T07:41:30;97329.19;;;0.25;91.30
51261;BME280;61705;46.228;24.812;2023-01-28T07:43:57;97332.66;;;0.22;91.25
51261;BME280;61705;46.228;24.812;2023-01-28T07:46:23;97336.88;;;0.36;91.10
51261;BME280;61705;46.228;24.812;2023-01-28T07:48:50;97338.53;;;0.43;91.04
51261;BME280;61705;46.228;24.812;2023-01-28T07:51:17;97335.00;;;0.47;90.96
51261;BME280;61705;46.228;24.812;2023-01-28T07:53:43;97341.84;;;0.54;90.73
51261;BME280;61705;46.228;24.812;2023-01-28T07:56:11;97344.47;;;0.53;90.61
51261;BME280;61705;46.228;24.812;2023-01-28T07:58:39;97341.03;;;0.52;90.57
51261;BME280;61705;46.228;24.812;2023-01-28T08:01:05;97344.44;;;0.54;90.49
51261;BME280;61705;46.228;24.812;2023-01-28T08:03:32;97347.06;;;0.56;90.45
51261;BME280;61705;46.228;24.812;2023-01-28T08:05:59;97350.53;;;0.53;90.35
51261;BME280;61705;46.228;24.812;2023-01-28T08:08:26;97352.25;;;0.54;90.45
51261;BME280;61705;46.228;24.812;2023-01-28T08:10:53;97357.38;;;0.62;90.31
51261;BME280;61705;46.228;24.812;2023-01-28T08:13:19;97366.88;;;0.64;90.23
51261;BME280;61705;46.228;24.812;2023-01-28T08:15:46;97360.78;;;0.67;89.77
51261;BME280;61705;46.228;24.812;2023-01-28T08:18:16;97357.28;;;0.68;89.68
51261;BME280;61705;46.228;24.812;2023-01-28T08:20:43;97352.97;;;0.67;89.32
51261;BME280;61705;46.228;24.812;2023-01-28T08:23:16;97356.31;;;0.80;89.14
51261;BME280;61705;46.228;24.812;2023-01-28T08:25:44;97354.63;;;0.76;88.63
51261;BME280;61705;46.228;24.812;2023-01-28T08:28:11;97360.72;;;0.73;88.10
51261;BME280;61705;46.228;24.812;2023-01-28T08:30:39;97352.03;;;0.76;87.98
51261;BME280;61705;46.228;24.812;2023-01-28T08:33:07;97352.78;;;0.84;87.80
51261;BME280;61705;46.228;24.812;2023-01-28T08:35:34;97360.50;;;0.88;87.74
51261;BME280;61705;46.228;24.812;2023-01-28T08:38:02;97364.91;;;0.86;87.53
51261;BME280;61705;46.228;24.812;2023-01-28T09:10:10;97363.44;;;1.32;86.46
51261;BME280;61705;46.228;24.812;2023-01-28T09:12:41;97366.88;;;1.34;86.46
51261;BME280;61705;46.228;24.812;2023-01-28T09:15:08;97360.00;;;1.28;86.37
51261;BME280;61705;46.228;24.812;2023-01-28T09:17:35;97353.88;;;1.34;86.24
51261;BME280;61705;46.228;24.812;2023-01-28T09:20:02;97354.75;;;1.30;85.72
51261;BME280;61705;46.228;24.812;2023-01-28T09:22:31;97353.91;;;1.31;85.41
51261;BME280;61705;46.228;24.812;2023-01-28T09:24:58;97352.97;;;1.35;85.33
51261;BME280;61705;46.228;24.812;2023-01-28T09:27:24;97350.34;;;1.36;85.19
51261;BME280;61705;46.228;24.812;2023-01-28T09:29:51;97352.13;;;1.34;85.21
51261;BME280;61705;46.228;24.812;2023-01-28T09:32:18;97350.34;;;1.36;85.10
51261;BME280;61705;46.228;24.812;2023-01-28T09:34:44;97352.03;;;1.40;85.16
51261;BME280;61705;46.228;24.812;2023-01-28T09:37:11;97356.31;;;1.45;84.99
51261;BME280;61705;46.228;24.812;2023-01-28T09:39:41;97345.03;;;1.42;84.91
51261;BME280;61705;46.228;24.812;2023-01-28T09:42:32;97347.72;;;1.36;84.42
51261;BME280;61705;46.228;24.812;2023-01-28T09:45:13;97351.19;;;1.38;84.11
51261;BME280;61705;46.228;24.812;2023-01-28T09:47:55;97351.16;;;1.41;83.98
51261;BME280;61705;46.228;24.812;2023-01-28T09:50:32;97353.53;;;1.54;84.09
51261;BME280;61705;46.228;24.812;2023-01-28T09:53:06;97348.28;;;1.57;84.02
51261;BME280;61705;46.228;24.812;2023-01-28T09:55:42;97346.50;;;1.62;84.40
51261;BME280;61705;46.228;24.812;2023-01-28T09:58:13;97348.09;;;1.71;84.31
51261;BME280;61705;46.228;24.812;2023-01-28T10:01:13;97353.06;;;1.84;84.13
51261;BME280;61705;46.228;24.812;2023-01-28T10:07:13;97355.63;;;1.87;83.65
51261;BME280;61705;46.228;24.812;2023-01-28T10:18:29;97354.53;;;2.02;82.45
51261;BME280;61705;46.228;24.812;2023-01-28T10:21:09;97353.50;;;2.12;82.46
51261;BME280;61705;46.228;24.812;2023-01-28T10:26:24;97352.47;;;2.21;83.03
51261;BME280;61705;46.228;24.812;2023-01-28T10:28:56;97354.34;;;2.13;82.99
51261;BME280;61705;46.228;24.812;2023-01-28T10:31:34;97351.84;;;2.07;83.08
51261;BME280;61705;46.228;24.812;2023-01-28T10:34:05;97354.53;;;2.02;82.90
51261;BME280;61705;46.228;24.812;2023-01-28T10:36:34;97354.25;;;2.18;83.28
51261;BME280;61705;46.228;24.812;2023-01-28T10:39:01;97352.56;;;2.15;83.15
51261;BME280;61705;46.228;24.812;2023-01-28T10:41:27;97354.34;;;2.13;83.26
51261;BME280;61705;46.228;24.812;2023-01-28T10:43:55;97349.88;;;2.20;83.22
51261;BME280;61705;46.228;24.812;2023-01-28T10:46:27;97355.97;;;2.20;83.15
51261;BME280;61705;46.228;24.812;2023-01-28T10:49:24;97343.97;;;2.10;83.06
51261;BME280;61705;46.228;24.812;2023-01-28T10:51:51;97351.88;;;2.04;82.80
51261;BME280;61705;46.228;24.812;2023-01-28T10:54:26;97350.03;;;2.10;82.87
51261;BME280;61705;46.228;24.812;2023-01-28T10:57:01;97345.44;;;2.26;82.76
51261;BME280;61705;46.228;24.812;2023-01-28T10:59:33;97344.69;;;2.20;83.09
51261;BME280;61705;46.228;24.812;2023-01-28T11:02:21;97346.44;;;2.19;83.08
51261;BME280;61705;46.228;24.812;2023-01-28T11:05:23;97341.94;;;2.27;83.05
51261;BME280;61705;46.228;24.812;2023-01-28T11:10:35;97345.63;;;2.14;83.67
51261;BME280;61705;46.228;24.812;2023-01-28T11:13:04;97347.28;;;2.20;83.59
51261;BME280;61705;46.228;24.812;2023-01-28T11:15:32;97345.59;;;2.17;83.80
51261;BME280;61705;46.228;24.812;2023-01-28T11:18:01;97343.78;;;2.21;83.84
51261;BME280;61705;46.228;24.812;2023-01-28T11:20:39;97347.44;;;2.10;83.91
51261;BME280;61705;46.228;24.812;2023-01-28T11:23:24;97341.50;;;2.01;83.88
51261;BME280;61705;46.228;24.812;2023-01-28T11:26:21;97345.72;;;2.08;84.25
51261;BME280;61705;46.228;24.812;2023-01-28T11:40:17;97339.06;;;2.41;82.02
51261;BME280;61705;46.228;24.812;2023-01-28T11:42:50;97341.06;;;2.27;82.25
51261;BME280;61705;46.228;24.812;2023-01-28T11:51:17;97339.19;;;1.84;82.72
51261;BME280;61705;46.228;24.812;2023-01-28T11:59:58;97334.28;;;1.64;84.13
51261;BME280;61705;46.228;24.812;2023-01-28T12:13:47;97347.69;;;1.41;85.91
51261;BME280;61705;46.228;24.812;2023-01-28T12:19:17;97348.63;;;1.35;86.33
51261;BME280;61705;46.228;24.812;2023-01-28T12:22:11;97347.69;;;1.41;86.65
51261;BME280;61705;46.228;24.812;2023-01-28T12:36:24;97353.88;;;1.32;87.46
51261;BME280;61705;46.228;24.812;2023-01-28T12:41:41;97360.81;;;1.32;88.06
51261;BME280;61705;46.228;24.812;2023-01-28T12:44:14;97360.78;;;1.33;88.12
51261;BME280;61705;46.228;24.812;2023-01-28T12:46:51;97363.50;;;1.27;88.06
51261;BME280;61705;46.228;24.812;2023-01-28T12:49:42;97366.06;;;1.29;87.91
51261;BME280;61705;46.228;24.812;2023-01-28T12:52:31;97370.50;;;1.22;88.35
51261;BME280;61705;46.228;24.812;2023-01-28T12:57:29;97367.94;;;1.19;88.17
51261;BME280;61705;46.228;24.812;2023-01-28T13:00:14;97373.16;;;1.17;88.45
51261;BME280;61705;46.228;24.812;2023-01-28T13:02:51;97384.50;;;1.13;88.64
51261;BME280;61705;46.228;24.812;2023-01-28T13:05:27;97378.34;;;1.21;88.87
51261;BME280;61705;46.228;24.812;2023-01-28T13:10:27;97384.31;;;1.27;88.71
51261;BME280;61705;46.228;24.812;2023-01-28T13:12:55;97383.41;;;1.30;89.02
51261;BME280;61705;46.228;24.812;2023-01-28T13:15:23;97383.34;;;1.33;88.75
51261;BME280;61705;46.228;24.812;2023-01-28T13:18:01;97390.22;;;1.38;88.91
51261;BME280;61705;46.228;24.812;2023-01-28T13:20:37;97391.09;;;1.40;89.07
51261;BME280;61705;46.228;24.812;2023-01-28T13:23:20;97389.31;;;1.42;89.16
51261;BME280;61705;46.228;24.812;2023-01-28T13:25:53;97389.31;;;1.44;89.12
51261;BME280;61705;46.228;24.812;2023-01-28T13:28:31;97396.25;;;1.42;89.22
51261;BME280;61705;46.228;24.812;2023-01-28T13:31:10;97393.63;;;1.45;89.38
51261;BME280;61705;46.228;24.812;2023-01-28T13:33:48;97398.81;;;1.43;89.49
51261;BME280;61705;46.228;24.812;2023-01-28T13:36:37;97403.16;;;1.43;89.49
51261;BME280;61705;46.228;24.812;2023-01-28T13:39:20;97406.69;;;1.40;89.36
51261;BME280;61705;46.228;24.812;2023-01-28T13:41:53;97402.41;;;1.36;89.40
51261;BME280;61705;46.228;24.812;2023-01-28T13:44:28;97409.38;;;1.33;89.54
51261;BME280;61705;46.228;24.812;2023-01-28T13:46:58;97401.66;;;1.28;89.85
51261;BME280;61705;46.228;24.812;2023-01-28T13:49:44;97416.47;;;1.23;89.77
51261;BME280;61705;46.228;24.812;2023-01-28T13:52:16;97410.47;;;1.18;89.95
51261;BME280;61705;46.228;24.812;2023-01-28T14:06:59;97421.78;;;1.14;90.74
51261;BME280;61705;46.228;24.812;2023-01-28T14:09:41;97424.44;;;1.09;90.82
51261;BME280;61705;46.228;24.812;2023-01-28T14:12:41;97430.56;;;1.07;90.82
51261;BME280;61705;46.228;24.812;2023-01-28T14:18:26;97426.31;;;0.98;91.17
51261;BME280;61705;46.228;24.812;2023-01-28T14:20:55;97422.91;;;0.93;91.21
51261;BME280;61705;46.228;24.812;2023-01-28T14:23:26;97422.97;;;0.87;91.39
51261;BME280;61705;46.228;24.812;2023-01-28T14:31:11;97427.44;;;0.74;91.97
51261;BME280;61705;46.228;24.812;2023-01-28T14:33:40;97431.78;;;0.74;92.14
51261;BME280;61705;46.228;24.812;2023-01-28T14:36:11;97434.41;;;0.70;92.29
51261;BME280;61705;46.228;24.812;2023-01-28T14:38:40;97426.63;;;0.67;92.58
51261;BME280;61705;46.228;24.812;2023-01-28T14:41:15;97425.78;;;0.67;92.75
51261;BME280;61705;46.228;24.812;2023-01-28T14:43:46;97432.72;;;0.65;92.86
51261;BME280;61705;46.228;24.812;2023-01-28T14:46:29;97428.44;;;0.61;93.13
51261;BME280;61705;46.228;24.812;2023-01-28T14:52:00;97434.53;;;0.60;93.47
51261;BME280;61705;46.228;24.812;2023-01-28T14:57:33;97437.22;;;0.47;93.49
51261;BME280;61705;46.228;24.812;2023-01-28T15:00:19;97434.72;;;0.41;93.54
51261;BME280;61705;46.228;24.812;2023-01-28T15:02:47;97447.72;;;0.40;94.14
51261;BME280;61705;46.228;24.812;2023-01-28T15:05:20;97448.53;;;0.43;94.11
51261;BME280;61705;46.228;24.812;2023-01-28T15:07:47;97446.81;;;0.42;93.95
51261;BME280;61705;46.228;24.812;2023-01-28T15:10:29;97450.38;;;0.32;94.16
51261;BME280;61705;46.228;24.812;2023-01-28T15:12:59;97446.06;;;0.30;94.28
51261;BME280;61705;46.228;24.812;2023-01-28T15:15:35;97448.63;;;0.33;94.17
51261;BME280;61705;46.228;24.812;2023-01-28T15:18:28;97456.47;;;0.31;94.10
51261;BME280;61705;46.228;24.812;2023-01-28T15:20:55;97459.09;;;0.25;94.28
51261;BME280;61705;46.228;24.812;2023-01-28T15:23:41;97476.41;;;0.26;94.55
51261;BME280;61705;46.228;24.812;2023-01-28T15:26:16;97475.53;;;0.27;94.73
51261;BME280;61705;46.228;24.812;2023-01-28T15:28:44;97479.03;;;0.25;94.56
51261;BME280;61705;46.228;24.812;2023-01-28T15:31:23;97476.44;;;0.23;94.70
51261;BME280;61705;46.228;24.812;2023-01-28T15:34:15;97477.28;;;0.28;94.35
51261;BME280;61705;46.228;24.812;2023-01-28T15:36:44;97478.19;;;0.22;94.26